Aviation Digital Data Service (ADDS)

Output produced by METARs form (1315 UTC 17 October 2017)
found at http://aviationweather.gov/adds/metars/
 
KOAJ 171123Z 1712/1812 01009KT P6SM SCT250 
     FM171500 01010G18KT P6SM FEW250 
     FM172200 01004KT P6SM SKC AMD LTD TO CLD VIS AND WIND